Historique des mesures à Cassis (13260), France
Quotidien Résumé Mai 28, 2018 Unités:  Métrique    US   Métrique/US
« Précédent (Jour)
Suivant (Jour) »
Quotidien Hebdomadaire Mensuel Annuel Période au choix
  Maximum: Minimum: Moyenne:
Température: TemperatureC °C 20.1 °C 20.7 °C
Point de rosée: DewpointC °C 14.0 °C 15.8 °C
Humidité: Humidity % 53 % 71 %
Vitesse du vent: 0 km/h 0 km/h 4.3 km/h
Rafales: 0 km/h - -
Vent:- - SSE
Pression: PressurehPa hPa 1009.4 hPa -
Précipitations: 2.0 mm    
Historical Graphs
 
 
Mesures pour : Mai 28, 2018
Heure Temperature Point de rosée Pression Vent Vitesse du vent Rafales Humidité Pluie (par heure) Conditions
TemperatureC °C DewpointC °C PressurehPa hPa Calm     Humidity % HourlyPrecipMM mm SoftwareType W/m2
00:11 24.2 °C 14.0 °C 1009.4 hPa ESE 9.3 km/h 10.9 km/h 53 % 0.0 mm open2300-1.11 W/m2
01:11 23.8 °C 14.2 °C 1010.0 hPa ENE 6.4 km/h 6.9 km/h 55 % 0.0 mm open2300-1.11 W/m2
02:11 22.2 °C 15.1 °C 1010.7 hPa Calm   6.4 km/h 64 % 0.0 mm open2300-1.11 W/m2
03:10 21.3 °C 15.1 °C 1010.7 hPa Calm     68 % 0.0 mm open2300-1.11 W/m2
04:10 20.1 °C 15.3 °C 1009.7 hPa Calm   2.3 km/h 74 % 2.0 mm open2300-1.11 W/m2
05:10 20.2 °C 15.2 °C 1009.7 hPa ESE 4.2 km/h 5.1 km/h 73 % 0.0 mm open2300-1.11 W/m2
06:10 20.3 °C 14.9 °C 1009.7 hPa Calm   2.3 km/h 71 % 0.0 mm open2300-1.11 W/m2
07:10 20.4 °C 16.0 °C 1010.7 hPa East 4.7 km/h 5.1 km/h 76 % 0.0 mm open2300-1.11 W/m2
08:10 20.4 °C 16.7 °C 1010.7 hPa ESE 5.6 km/h 18.7 km/h 79 % 0.0 mm open2300-1.11 W/m2
09:10 20.3 °C 16.8 °C 1011.1 hPa SW 11.6 km/h 11.6 km/h 80 % 0.0 mm open2300-1.11 W/m2
10:10 20.8 °C 17.2 °C 1011.7 hPa ESE 5.6 km/h 5.6 km/h 80 % 0.0 mm open2300-1.11 W/m2
11:10 21.3 °C 17.3 °C 1012.1 hPa SSE 7.6 km/h 7.6 km/h 78 % 0.0 mm open2300-1.11 W/m2
12:10 21.5 °C 17.5 °C 1012.4 hPa SE 5.1 km/h 14.5 km/h 78 % 0.0 mm open2300-1.11 W/m2
13:10 22.1 °C 17.7 °C 1012.8 hPa SSE 4.7 km/h 4.7 km/h 76 % 0.0 mm open2300-1.11 W/m2
14:11 22.1 °C 17.9 °C 1012.4 hPa SSE 5.1 km/h 7.6 km/h 77 % 0.0 mm open2300-1.11 W/m2
15:12 23.3 °C 18.4 °C 1012.8 hPa West 15 km/h 19.2 km/h 74 % 0.0 mm open2300-1.11 W/m2
16:11 22.9 °C 17.8 °C 1012.4 hPa WNW 6.4 km/h 6.4 km/h 73 % 0.0 mm open2300-1.11 W/m2
17:11 21.9 °C 17.4 °C 1012.8 hPa SSE 8.9 km/h 8.9 km/h 76 % 0.0 mm open2300-1.11 W/m2
18:11 22.5 °C 17.8 °C 1012.8 hPa SE 7.6 km/h 7.6 km/h 75 % 0.0 mm open2300-1.11 W/m2
19:11 22.4 °C 17.3 °C 1012.8 hPa Calm   4.2 km/h 73 % 0.0 mm open2300-1.11 W/m2
20:11 21.3 °C 16.7 °C 1013.1 hPa Calm     75 % 0.0 mm open2300-1.11 W/m2
21:11 20.8 °C 16.6 °C 1013.1 hPa Calm     77 % 0.0 mm open2300-1.11 W/m2
22:11 20.5 °C 16.6 °C 1013.8 hPa Calm     78 % 0.0 mm open2300-1.11 W/m2
23:11 20.4 °C 16.7 °C 1013.8 hPa Calm     79 % 0.0 mm open2300-1.11 W/m2
Observations météo à CASSIS
WU-History script by Weather Underground - 1 mb